createdAt,value
2022-08-22T00:00:18.505Z,86.43
2022-08-22T00:03:01.247Z,64.98
2022-08-22T00:03:04.819Z,67.35
2022-08-22T00:06:26.448Z,86.26
2022-08-22T00:09:30.254Z,84.52
2022-08-22T00:12:29.959Z,86.46
2022-08-22T00:15:41.872Z,87.46
2022-08-22T00:18:44.235Z,88.01
2022-08-22T00:21:33.095Z,88.09
2022-08-22T00:24:20.183Z,88.09
2022-08-22T00:27:05.899Z,87.52
2022-08-22T00:30:11.506Z,87.89
2022-08-22T00:32:53.521Z,88.32
2022-08-22T00:35:45.478Z,88.50
2022-08-22T00:38:41.375Z,88.75
2022-08-22T00:41:21.683Z,89.08
2022-08-22T00:44:51.375Z,89.41
2022-08-22T00:48:04.190Z,89.49
2022-08-22T00:51:09.677Z,89.85
2022-08-22T00:53:42.019Z,90.01
2022-08-22T00:56:36.257Z,89.82
2022-08-22T00:59:23.704Z,89.48
2022-08-22T01:02:22.016Z,89.98
2022-08-22T01:05:05.211Z,91.01
2022-08-22T01:08:25.329Z,90.68
2022-08-22T01:11:24.644Z,90.92
2022-08-22T01:14:34.794Z,90.71
2022-08-22T01:17:42.078Z,90.72
2022-08-22T01:20:46.423Z,90.73
2022-08-22T01:23:40.523Z,90.35
2022-08-22T01:26:40.511Z,90.15
2022-08-22T01:29:40.054Z,90.22
2022-08-22T01:32:49.258Z,90.30
2022-08-22T01:36:02.436Z,89.99
2022-08-22T01:39:15.324Z,91.18
2022-08-22T01:42:24.780Z,91.03
2022-08-22T01:45:19.002Z,89.40
2022-08-22T01:48:20.566Z,89.41
2022-08-22T01:51:21.356Z,92.40
2022-08-22T01:54:24.468Z,92.72
2022-08-22T01:57:01.655Z,92.67
2022-08-22T01:59:43.392Z,92.56
2022-08-22T02:02:48.148Z,92.34
2022-08-22T02:05:17.359Z,92.18
2022-08-22T02:08:18.233Z,91.31
2022-08-22T02:11:12.082Z,91.50
2022-08-22T02:14:31.851Z,91.92
2022-08-22T02:17:20.876Z,92.23
2022-08-22T02:20:21.053Z,93.24
2022-08-22T02:23:06.934Z,93.61
2022-08-22T02:25:46.746Z,92.42
2022-08-22T02:28:57.168Z,91.26
2022-08-22T02:31:41.882Z,92.89
2022-08-22T02:34:38.555Z,94.55
2022-08-22T02:37:35.039Z,92.38
2022-08-22T02:40:28.325Z,92.95
2022-08-22T02:43:20.859Z,93.08
2022-08-22T02:46:05.780Z,93.59
2022-08-22T02:49:15.220Z,92.88
2022-08-22T02:52:19.341Z,92.74
2022-08-22T02:55:14.122Z,91.50
2022-08-22T02:57:53.409Z,91.93
2022-08-22T03:01:03.423Z,93.20
2022-08-22T03:03:41.463Z,92.65
2022-08-22T03:06:35.066Z,94.34
2022-08-22T03:09:14.341Z,94.49
2022-08-22T03:11:49.740Z,94.27
2022-08-22T03:14:43.674Z,94.16
2022-08-22T03:17:29.310Z,93.69
2022-08-22T03:20:38.849Z,93.47
2022-08-22T03:23:17.849Z,93.05
2022-08-22T03:25:51.884Z,92.83
2022-08-22T03:29:00.931Z,92.11
2022-08-22T03:31:32.427Z,92.13
2022-08-22T03:34:23.124Z,91.87
2022-08-22T03:37:35.939Z,91.79
2022-08-22T03:40:29.735Z,91.61
2022-08-22T03:43:31.552Z,91.77
2022-08-22T03:46:32.019Z,91.96
2022-08-22T03:49:15.946Z,92.26
2022-08-22T03:52:12.029Z,92.27
2022-08-22T03:54:49.540Z,91.57
2022-08-22T03:58:27.559Z,91.48
2022-08-22T04:01:56.769Z,91.63
2022-08-22T04:05:02.868Z,91.92
2022-08-22T04:07:56.044Z,91.74
2022-08-22T04:10:51.955Z,92.44
2022-08-22T04:13:39.189Z,92.13
2022-08-22T04:16:49.710Z,91.79
2022-08-22T04:19:37.332Z,91.42
2022-08-22T04:22:24.110Z,91.04
2022-08-22T04:25:14.480Z,90.85
2022-08-22T04:28:06.879Z,90.04
2022-08-22T04:31:01.786Z,89.80
2022-08-22T04:34:28.959Z,89.47
2022-08-22T04:37:10.871Z,89.31
2022-08-22T04:39:55.793Z,89.19
2022-08-22T04:42:43.036Z,89.83
2022-08-22T04:45:32.373Z,88.93
2022-08-22T04:48:27.190Z,88.68
2022-08-22T04:51:16.901Z,88.48
2022-08-22T04:54:06.967Z,88.44
2022-08-22T04:57:15.586Z,88.03
2022-08-22T04:59:44.792Z,87.54
2022-08-22T05:02:24.255Z,87.16
2022-08-22T05:05:04.338Z,86.98
2022-08-22T05:07:41.516Z,86.88
2022-08-22T05:10:49.052Z,86.67
2022-08-22T05:13:39.786Z,87.20
2022-08-22T05:16:19.582Z,86.79
2022-08-22T05:18:55.769Z,86.77
2022-08-22T05:21:32.547Z,86.77
2022-08-22T05:24:11.549Z,86.49
2022-08-22T05:26:50.821Z,86.13
2022-08-22T05:29:25.424Z,85.35
2022-08-22T05:32:07.893Z,85.08
2022-08-22T05:34:42.192Z,84.82
2022-08-22T05:37:34.553Z,84.83
2022-08-22T05:40:03.989Z,84.10
2022-08-22T05:42:37.741Z,83.60
2022-08-22T05:45:12.126Z,83.34
2022-08-22T05:48:03.439Z,82.62
2022-08-22T05:51:13.863Z,82.34
2022-08-22T05:53:48.619Z,81.56
2022-08-22T05:56:37.769Z,81.15
2022-08-22T05:59:30.587Z,80.60
2022-08-22T06:02:13.162Z,80.13
2022-08-22T06:05:01.230Z,80.05
2022-08-22T06:07:46.837Z,79.46
2022-08-22T06:10:48.126Z,79.04
2022-08-22T06:13:32.402Z,78.06
2022-08-22T06:16:23.197Z,77.18
2022-08-22T06:18:53.164Z,77.03
2022-08-22T06:21:39.251Z,76.81
2022-08-22T06:24:16.912Z,76.39
2022-08-22T06:26:49.132Z,75.95
2022-08-22T06:29:30.478Z,75.25
2022-08-22T06:32:04.242Z,74.81
2022-08-22T06:34:39.533Z,74.64
2022-08-22T06:37:17.153Z,73.86
2022-08-22T06:39:51.193Z,72.85
2022-08-22T06:42:26.124Z,72.79
2022-08-22T06:45:08.372Z,72.31
2022-08-22T06:47:50.125Z,71.33
2022-08-22T06:50:26.284Z,71.66
2022-08-22T06:53:45.938Z,70.38
2022-08-22T06:56:26.786Z,69.93
2022-08-22T06:59:04.255Z,69.52
2022-08-22T07:01:47.022Z,69.35
2022-08-22T07:04:16.670Z,68.68
2022-08-22T07:06:51.058Z,68.51
2022-08-22T07:09:35.188Z,68.07
2022-08-22T07:12:16.811Z,67.71
2022-08-22T07:14:50.513Z,67.54
2022-08-22T07:17:29.244Z,67.65
2022-08-22T07:20:17.561Z,66.40
2022-08-22T07:23:32.002Z,65.82
2022-08-22T07:26:56.656Z,65.74
2022-08-22T07:29:54.734Z,65.88
2022-08-22T07:32:49.686Z,63.63
2022-08-22T07:35:26.364Z,63.67
2022-08-22T07:38:35.188Z,63.33
2022-08-22T07:41:23.754Z,62.87
2022-08-22T07:44:11.141Z,62.63
2022-08-22T07:47:00.934Z,62.36
2022-08-22T07:50:03.945Z,61.54
2022-08-22T07:52:43.073Z,61.93
2022-08-22T07:55:26.716Z,59.57
2022-08-22T07:58:06.061Z,58.04
2022-08-22T08:00:41.414Z,58.05
2022-08-22T08:03:11.867Z,56.40
2022-08-22T08:05:45.194Z,55.80
2022-08-22T08:08:26.608Z,55.76
2022-08-22T08:10:59.170Z,55.02
2022-08-22T08:13:39.903Z,54.73
2022-08-22T08:16:18.128Z,53.77
2022-08-22T08:18:51.458Z,54.12
2022-08-22T08:29:11.354Z,51.10
2022-08-22T08:37:15.487Z,49.48
2022-08-22T08:39:52.025Z,50.01
2022-08-22T08:43:10.642Z,49.85
2022-08-22T08:46:16.770Z,49.90
2022-08-22T08:48:53.893Z,50.13
2022-08-22T08:51:47.629Z,49.76
2022-08-22T08:54:36.231Z,49.41
2022-08-22T08:57:37.332Z,49.64
2022-08-22T09:00:50.645Z,48.62
2022-08-22T11:30:18.740Z,39.73
2022-08-22T11:33:13.640Z,38.81
2022-08-22T11:35:45.305Z,37.73
2022-08-22T11:38:36.272Z,36.91
2022-08-22T11:41:30.020Z,36.47
2022-08-22T11:44:22.414Z,36.44
2022-08-22T11:46:58.098Z,36.44
2022-08-22T11:49:33.099Z,36.87
2022-08-22T11:52:30.928Z,36.14
2022-08-22T11:55:21.911Z,36.19
2022-08-22T11:58:28.672Z,35.72
2022-08-22T12:01:28.080Z,36.81
2022-08-22T12:04:12.744Z,37.89
2022-08-22T12:06:56.729Z,37.57
2022-08-22T12:09:41.467Z,38.22
2022-08-22T12:12:46.581Z,38.69
2022-08-22T12:15:24.606Z,39.14
2022-08-22T12:18:34.023Z,39.07
2022-08-22T12:21:21.469Z,39.43
2022-08-22T12:24:06.021Z,39.33
2022-08-22T12:27:07.766Z,39.78
2022-08-22T12:30:12.909Z,39.84
2022-08-22T12:33:09.901Z,40.19
2022-08-22T12:36:06.406Z,40.39
2022-08-22T12:39:05.765Z,40.33
2022-08-22T12:42:11.328Z,40.54
2022-08-22T12:45:14.318Z,40.56
2022-08-22T12:48:09.106Z,40.71
2022-08-22T12:51:18.964Z,40.00
2022-08-22T12:54:27.251Z,40.19
2022-08-22T12:57:50.476Z,40.91
2022-08-22T13:00:45.440Z,40.74
2022-08-22T13:03:29.661Z,40.60
2022-08-22T13:06:05.118Z,40.52
2022-08-22T13:08:45.801Z,40.29
2022-08-22T13:11:23.321Z,40.21
2022-08-22T13:14:00.643Z,40.17
2022-08-22T13:16:48.948Z,40.24
2022-08-22T13:19:28.017Z,40.40
2022-08-22T13:22:02.487Z,40.18
2022-08-22T13:24:56.939Z,40.10
2022-08-22T13:33:10.325Z,39.17
2022-08-22T13:35:44.700Z,38.71
2022-08-22T13:38:54.171Z,38.33
2022-08-22T13:41:31.203Z,37.65
2022-08-22T13:44:09.417Z,37.31
2022-08-22T13:46:57.952Z,37.14
2022-08-22T13:49:42.419Z,36.37
2022-08-22T13:52:37.921Z,35.68
2022-08-22T13:55:17.910Z,35.03
2022-08-22T13:57:56.883Z,34.67
2022-08-22T14:01:05.990Z,34.79
2022-08-22T14:03:59.604Z,34.02
2022-08-22T14:06:41.484Z,33.74
2022-08-22T14:09:31.385Z,33.33
2022-08-22T14:12:21.265Z,33.70
2022-08-22T14:15:02.508Z,33.77
2022-08-22T14:17:42.868Z,34.37
2022-08-22T14:20:32.410Z,34.43
2022-08-22T14:23:18.213Z,35.08
2022-08-22T14:25:47.949Z,34.60
2022-08-22T14:28:33.592Z,35.32
2022-08-22T14:31:13.696Z,35.47
2022-08-22T14:33:52.060Z,35.86
2022-08-22T14:36:47.619Z,36.04
2022-08-22T14:39:42.778Z,36.23
2022-08-22T14:42:26.644Z,36.96
2022-08-22T14:45:25.146Z,36.96
2022-08-22T14:48:32.609Z,36.70
2022-08-22T14:51:11.018Z,36.50
2022-08-22T14:53:40.748Z,37.12
2022-08-22T14:56:21.886Z,37.49
2022-08-22T14:59:02.739Z,38.01
2022-08-22T15:01:49.774Z,38.32
2022-08-22T15:04:41.206Z,38.61
2022-08-22T15:07:12.837Z,39.39
2022-08-22T15:09:57.752Z,39.67
2022-08-22T15:12:40.632Z,39.34
2022-08-22T15:15:27.338Z,39.82
2022-08-22T15:17:56.576Z,39.91
2022-08-22T15:20:38.186Z,40.02
2022-08-22T15:23:23.767Z,40.34
2022-08-22T15:26:04.200Z,41.00
2022-08-22T15:28:49.762Z,41.47
2022-08-22T15:31:22.933Z,41.34
2022-08-22T15:33:53.279Z,41.92
2022-08-22T15:36:26.677Z,42.72
2022-08-22T15:39:17.091Z,43.24
2022-08-22T15:41:51.130Z,42.86
2022-08-22T15:44:32.255Z,42.47
2022-08-22T15:47:35.014Z,43.24
2022-08-22T15:50:14.688Z,43.73
2022-08-22T15:56:29.582Z,44.41
2022-08-22T15:59:53.623Z,45.09
2022-08-22T16:02:36.869Z,45.40
2022-08-22T16:05:12.167Z,46.38
2022-08-22T16:08:16.289Z,47.56
2022-08-22T16:11:14.682Z,49.74
2022-08-22T16:13:46.495Z,51.54
2022-08-22T16:16:27.577Z,52.31
2022-08-22T16:18:56.122Z,53.73
2022-08-22T16:21:32.904Z,54.66
2022-08-22T16:24:07.860Z,55.43
2022-08-22T16:26:44.578Z,56.45
2022-08-22T16:29:18.149Z,57.33
2022-08-22T16:31:46.925Z,59.03
2022-08-22T16:34:18.545Z,58.74
2022-08-22T16:37:36.831Z,58.91
2022-08-22T16:40:18.761Z,58.66
2022-08-22T16:43:17.612Z,59.44
2022-08-22T16:45:48.773Z,59.55
2022-08-22T16:48:45.791Z,60.13
2022-08-22T16:51:26.067Z,61.15
2022-08-22T16:54:32.625Z,61.73
2022-08-22T16:58:05.972Z,61.81
2022-08-22T17:01:20.789Z,61.86
2022-08-22T17:04:35.386Z,62.83
2022-08-22T17:07:43.687Z,62.99
2022-08-22T17:10:36.348Z,63.02
2022-08-22T17:13:41.274Z,63.16
2022-08-22T17:16:53.886Z,63.64
2022-08-22T17:19:43.800Z,64.65
2022-08-22T17:22:47.611Z,65.48
2022-08-22T17:25:53.715Z,66.18
2022-08-22T17:28:57.546Z,66.39
2022-08-22T17:31:57.531Z,66.76
2022-08-22T17:35:12.205Z,67.15
2022-08-22T17:38:14.161Z,66.68
2022-08-22T17:41:05.215Z,66.26
2022-08-22T17:44:01.785Z,66.88
2022-08-22T17:47:06.695Z,67.04
2022-08-22T17:49:41.437Z,67.57
2022-08-22T17:52:34.086Z,67.80
2022-08-22T17:55:20.068Z,68.10
2022-08-22T17:58:37.670Z,68.18
2022-08-22T18:01:14.886Z,68.26
2022-08-22T18:03:53.737Z,68.58
2022-08-22T18:06:30.230Z,69.22
2022-08-22T18:09:19.322Z,68.29
2022-08-22T18:12:41.349Z,68.62
2022-08-22T18:15:25.952Z,68.76
2022-08-22T18:18:39.439Z,68.92
2022-08-22T18:21:37.502Z,69.13
2022-08-22T18:24:12.626Z,69.68
2022-08-22T18:26:58.644Z,69.41
2022-08-22T18:29:33.003Z,69.04
2022-08-22T18:32:46.044Z,69.60
2022-08-22T18:35:31.719Z,69.32
2022-08-22T18:38:19.589Z,69.33
2022-08-22T18:40:58.031Z,69.23
2022-08-22T18:43:42.182Z,70.49
2022-08-22T18:46:40.619Z,71.40
2022-08-22T18:49:21.125Z,72.21
2022-08-22T18:52:26.630Z,73.59
2022-08-22T18:55:22.772Z,78.05
2022-08-22T18:58:18.727Z,79.44
2022-08-22T19:01:00.481Z,82.89
2022-08-22T19:04:25.544Z,87.69
2022-08-22T19:07:36.466Z,89.64
2022-08-22T19:10:46.715Z,90.66
2022-08-22T19:14:06.432Z,88.00
2022-08-22T19:17:15.588Z,88.25
2022-08-22T19:20:19.813Z,89.71
2022-08-22T19:22:51.116Z,91.99
2022-08-22T19:25:28.144Z,90.36
2022-08-22T19:28:11.871Z,87.35
2022-08-22T19:31:16.111Z,85.17
2022-08-22T19:33:50.688Z,84.90
2022-08-22T19:36:33.722Z,85.02
2022-08-22T19:39:43.848Z,86.43
2022-08-22T19:42:19.085Z,88.06
2022-08-22T19:45:19.388Z,89.09
2022-08-22T19:48:15.150Z,88.54
2022-08-22T19:50:44.423Z,87.89
2022-08-22T19:53:59.103Z,88.06
2022-08-22T19:56:42.552Z,87.54
2022-08-22T20:00:00.319Z,91.59
2022-08-22T20:07:59.709Z,93.32
2022-08-22T20:11:01.566Z,90.19
2022-08-22T20:13:45.863Z,92.44
2022-08-22T20:17:03.118Z,90.94
2022-08-22T20:22:52.764Z,91.74
2022-08-22T20:25:54.327Z,92.03
2022-08-22T20:28:51.014Z,92.06
2022-08-22T20:31:25.679Z,91.85
2022-08-22T20:34:28.862Z,93.17
2022-08-22T20:37:25.399Z,96.29
2022-08-22T20:40:06.350Z,95.87
2022-08-22T20:42:36.958Z,93.01
2022-08-22T20:45:12.301Z,92.79
2022-08-22T20:47:43.556Z,92.79
2022-08-22T20:50:26.111Z,93.23
2022-08-22T20:53:22.688Z,93.76
2022-08-22T20:56:08.272Z,94.73
2022-08-22T20:58:41.186Z,95.49
2022-08-22T21:01:12.445Z,98.78
2022-08-22T21:03:50.953Z,98.34
2022-08-22T21:06:30.522Z,98.06
2022-08-22T21:09:37.549Z,96.76
2022-08-22T21:12:09.890Z,96.11
2022-08-22T21:14:46.321Z,95.66
2022-08-22T21:17:28.093Z,96.46
2022-08-22T21:19:58.287Z,97.41
2022-08-22T21:22:33.340Z,98.04
2022-08-22T21:25:02.175Z,97.87
2022-08-22T21:27:35.259Z,97.49
2022-08-22T21:30:10.167Z,96.91
2022-08-22T21:32:50.061Z,95.90
2022-08-22T21:35:33.617Z,95.40
2022-08-22T21:38:03.221Z,95.47
2022-08-22T21:40:37.273Z,95.71
2022-08-22T21:43:30.114Z,94.70
2022-08-22T21:45:58.829Z,96.04
2022-08-22T21:48:35.622Z,95.37
2022-08-22T21:51:44.642Z,94.20
2022-08-22T21:54:25.424Z,97.31
2022-08-22T21:57:13.956Z,96.58
2022-08-22T21:59:58.960Z,96.13
2022-08-22T22:02:38.027Z,96.73
2022-08-22T22:05:17.824Z,96.43
2022-08-22T22:07:48.140Z,97.82
2022-08-22T22:10:19.884Z,97.57
2022-08-22T22:12:52.271Z,96.65
2022-08-22T22:15:26.106Z,95.62
2022-08-22T22:17:55.972Z,96.70
2022-08-22T22:20:26.485Z,97.36
2022-08-22T22:22:56.345Z,97.28
2022-08-22T22:25:40.947Z,97.68
2022-08-22T22:28:18.971Z,97.65
2022-08-22T22:30:51.718Z,97.68
2022-08-22T22:33:22.312Z,98.60
2022-08-22T22:35:53.363Z,99.26
2022-08-22T22:38:24.413Z,99.68
2022-08-22T22:40:53.617Z,100.00
2022-08-22T22:43:23.403Z,100.00
2022-08-22T22:45:52.146Z,100.00
2022-08-22T22:48:24.537Z,99.91
2022-08-22T22:50:54.204Z,99.19
2022-08-22T22:53:43.077Z,99.03
2022-08-22T22:56:25.410Z,99.84
2022-08-22T22:58:59.240Z,100.00
2022-08-22T23:01:32.858Z,99.57
2022-08-22T23:04:05.708Z,99.94
2022-08-22T23:06:35.114Z,100.00
2022-08-22T23:09:04.253Z,100.00
2022-08-22T23:11:32.887Z,100.00
2022-08-22T23:14:02.971Z,100.00
2022-08-22T23:16:50.288Z,100.00
2022-08-22T23:19:19.383Z,100.00
2022-08-22T23:21:48.105Z,100.00
2022-08-22T23:24:18.205Z,100.00
2022-08-22T23:26:46.973Z,100.00
2022-08-22T23:29:16.084Z,100.00
2022-08-22T23:31:55.101Z,100.00
2022-08-22T23:34:31.046Z,100.00
2022-08-22T23:37:03.169Z,99.83
2022-08-22T23:39:36.066Z,99.91
2022-08-22T23:42:07.677Z,99.97
2022-08-22T23:44:39.078Z,100.00
2022-08-22T23:47:10.220Z,99.94
2022-08-22T23:49:41.157Z,99.94
2022-08-22T23:52:12.638Z,100.00
2022-08-22T23:54:42.060Z,100.00
2022-08-22T23:57:11.864Z,100.00
2022-08-22T23:59:47.963Z,100.00
